createdAt,value
2019-05-15T00:04:59.412Z,0
2019-05-15T00:09:58.657Z,0
2019-05-15T00:16:12.007Z,0
2019-05-15T00:19:59.086Z,0
2019-05-15T00:26:52.138Z,0
2019-05-15T00:29:58.542Z,0
2019-05-15T00:34:59.172Z,0
2019-05-15T00:39:59.239Z,0
2019-05-15T00:50:14.175Z,0
2019-05-15T00:55:02.385Z,0
2019-05-15T01:00:02.055Z,0
2019-05-15T01:05:01.909Z,0
2019-05-15T01:10:02.361Z,0
2019-05-15T01:15:02.297Z,0
2019-05-15T01:20:01.866Z,0
2019-05-15T01:25:01.914Z,0
2019-05-15T01:30:02.957Z,0
2019-05-15T01:35:02.026Z,0
2019-05-15T01:40:01.982Z,0
2019-05-15T01:45:02.965Z,0
2019-05-15T01:50:02.335Z,0
2019-05-15T01:55:01.703Z,0
2019-05-15T02:00:02.464Z,0
2019-05-15T02:05:02.588Z,0
2019-05-15T02:10:02.163Z,0
2019-05-15T02:15:02.309Z,0
2019-05-15T02:20:02.722Z,0
2019-05-15T02:25:02.335Z,0
2019-05-15T02:30:16.043Z,0
2019-05-15T02:35:02.648Z,0
2019-05-15T02:40:02.616Z,0
2019-05-15T02:45:02.530Z,0
2019-05-15T02:50:02.433Z,0
2019-05-15T02:55:01.834Z,0
2019-05-15T03:00:02.530Z,0
2019-05-15T03:05:01.717Z,0
2019-05-15T03:10:01.694Z,0
2019-05-15T03:15:01.792Z,0
2019-05-15T03:20:02.044Z,0
2019-05-15T03:25:02.326Z,0
2019-05-15T03:30:02.046Z,0
2019-05-15T03:35:05.111Z,0
2019-05-15T03:40:01.676Z,0
2019-05-15T03:45:01.938Z,0
2019-05-15T03:50:01.558Z,0
2019-05-15T03:55:01.887Z,0
2019-05-15T04:00:01.859Z,0
2019-05-15T04:05:02.286Z,0.8
2019-05-15T04:10:01.963Z,0.8
2019-05-15T04:15:01.515Z,1.7
2019-05-15T04:20:01.648Z,1.7
2019-05-15T04:25:01.763Z,1.7
2019-05-15T04:30:01.543Z,2.5
2019-05-15T04:35:01.642Z,2.5
2019-05-15T04:40:01.745Z,3.3
2019-05-15T04:45:02.106Z,5
2019-05-15T04:50:02.051Z,5.8
2019-05-15T04:55:01.421Z,5
2019-05-15T05:00:01.377Z,5.8
2019-05-15T05:05:01.601Z,5.8
2019-05-15T05:10:01.726Z,6.7
2019-05-15T05:15:01.647Z,6.7
2019-05-15T05:20:01.547Z,7.5
2019-05-15T05:25:01.493Z,8.3
2019-05-15T05:30:01.440Z,9.2
2019-05-15T05:35:01.739Z,10
2019-05-15T05:40:01.501Z,10.8
2019-05-15T05:45:01.778Z,11.7
2019-05-15T05:50:01.675Z,12.5
2019-05-15T05:55:01.617Z,13.3
2019-05-15T06:00:01.385Z,14.2
2019-05-15T06:05:01.320Z,15
2019-05-15T06:10:01.499Z,15.8
2019-05-15T06:15:01.450Z,15.8
2019-05-15T06:20:01.484Z,16.7
2019-05-15T06:25:04.797Z,18.3
2019-05-15T06:30:01.304Z,19.2
2019-05-15T06:35:01.532Z,19.2
2019-05-15T06:40:01.539Z,20
2019-05-15T06:45:01.434Z,20
2019-05-15T06:50:01.265Z,20
2019-05-15T06:55:01.239Z,15.8
2019-05-15T07:00:01.414Z,19.2
2019-05-15T07:05:01.535Z,19.2
2019-05-15T07:10:01.211Z,20
2019-05-15T07:15:01.489Z,20
2019-05-15T07:20:01.464Z,20
2019-05-15T07:25:02.319Z,20
2019-05-15T07:30:01.280Z,20
2019-05-15T07:35:01.666Z,20
2019-05-15T07:40:01.275Z,20
2019-05-15T07:45:01.433Z,20
2019-05-15T07:50:01.390Z,20.8
2019-05-15T07:55:01.104Z,20.8
2019-05-15T08:00:01.146Z,20.8
2019-05-15T08:05:01.118Z,21.7
2019-05-15T08:10:01.356Z,20.8
2019-05-15T08:15:01.487Z,21.7
2019-05-15T08:20:01.346Z,20.8
2019-05-15T08:25:01.035Z,21.7
2019-05-15T08:30:01.442Z,21.7
2019-05-15T08:35:01.428Z,21.7
2019-05-15T08:40:01.696Z,21.7
2019-05-15T08:45:01.312Z,21.7
2019-05-15T08:50:01.363Z,21.7
2019-05-15T08:55:01.139Z,21.7
2019-05-15T09:00:01.405Z,21.7
2019-05-15T09:05:02.038Z,21.7
2019-05-15T09:10:01.335Z,21.7
2019-05-15T09:15:01.385Z,21.7
2019-05-15T09:20:01.194Z,22.5
2019-05-15T09:25:01.391Z,22.5
2019-05-15T09:30:01.279Z,22.5
2019-05-15T09:35:01.192Z,22.5
2019-05-15T09:40:01.614Z,22.5
2019-05-15T09:45:01.508Z,24.2
2019-05-15T09:50:01.937Z,27.5
2019-05-15T09:55:00.962Z,33.3
2019-05-15T10:00:01.275Z,37.5
2019-05-15T10:05:06.472Z,35.8
2019-05-15T10:10:01.144Z,35.8
2019-05-15T10:15:01.194Z,36.7
2019-05-15T10:20:01.153Z,35.8
2019-05-15T10:25:01.089Z,36.7
2019-05-15T10:30:01.275Z,35.8
2019-05-15T10:35:01.239Z,36.7
2019-05-15T10:40:01.476Z,36.7
2019-05-15T10:45:01.601Z,37.5
2019-05-15T10:50:01.296Z,39.2
2019-05-15T10:55:01.275Z,38.3
2019-05-15T11:00:01.096Z,39.2
2019-05-15T11:05:00.796Z,40
2019-05-15T11:10:01.114Z,37.5
2019-05-15T11:15:01.090Z,40.8
2019-05-15T11:20:00.766Z,41.7
2019-05-15T11:25:00.877Z,41.7
2019-05-15T11:30:00.624Z,40.8
2019-05-15T11:35:04.042Z,41.7
2019-05-15T11:40:00.923Z,44.2
2019-05-15T11:45:01.053Z,45.8
2019-05-15T11:50:00.924Z,45
2019-05-15T11:55:00.998Z,46.7
2019-05-15T12:00:00.868Z,45.8
2019-05-15T12:05:00.626Z,49.2
2019-05-15T12:10:00.710Z,53.3
2019-05-15T12:15:00.884Z,53.3
2019-05-15T12:20:05.676Z,53.3
2019-05-15T12:25:01.121Z,53.3
2019-05-15T12:30:00.687Z,55
2019-05-15T12:35:00.954Z,55
2019-05-15T13:00:00.952Z,62.5
2019-05-15T13:05:00.947Z,64.2
2019-05-15T13:10:00.695Z,65
2019-05-15T13:15:00.715Z,66.7
2019-05-15T13:20:00.859Z,67.5
2019-05-15T13:25:00.742Z,66.7
2019-05-15T13:30:00.597Z,71.7
2019-05-15T13:35:00.835Z,71.7
2019-05-15T13:40:00.703Z,71.7
2019-05-15T13:45:00.656Z,68.3
2019-05-15T13:50:00.603Z,70
2019-05-15T13:55:00.525Z,80
2019-05-15T14:00:00.645Z,78.3
2019-05-15T14:05:00.597Z,76.7
2019-05-15T14:10:00.612Z,78.3
2019-05-15T14:15:00.839Z,80
2019-05-15T14:20:00.691Z,80.8
2019-05-15T14:25:00.528Z,81.7
2019-05-15T14:30:00.425Z,87.5
2019-05-15T14:35:00.420Z,90.8
2019-05-15T14:40:00.862Z,106.7
2019-05-15T14:45:00.679Z,148.3
2019-05-15T14:50:00.548Z,125
2019-05-15T14:55:00.539Z,123.3
2019-05-15T15:00:00.465Z,128.3
2019-05-15T15:05:00.728Z,130
2019-05-15T15:10:00.533Z,138.3
2019-05-15T15:15:00.695Z,145.8
2019-05-15T15:20:00.478Z,150
2019-05-15T15:25:00.639Z,160
2019-05-15T15:30:00.338Z,160.8
2019-05-15T15:35:00.530Z,155
2019-05-15T15:40:00.558Z,119.2
2019-05-15T15:45:00.563Z,81.7
2019-05-15T15:50:00.504Z,18.3
2019-05-15T15:55:00.509Z,16.7
2019-05-15T16:00:00.411Z,16.7
2019-05-15T16:05:00.393Z,17.5
2019-05-15T16:10:00.391Z,15.8
2019-05-15T16:15:00.378Z,15
2019-05-15T16:20:00.404Z,14.2
2019-05-15T16:25:02.466Z,14.2
2019-05-15T16:30:00.349Z,12.5
2019-05-15T16:35:00.576Z,11.7
2019-05-15T16:40:00.448Z,11.7
2019-05-15T16:45:00.210Z,10.8
2019-05-15T16:50:00.656Z,10.8
2019-05-15T16:55:00.261Z,10.8
2019-05-15T17:00:00.172Z,10
2019-05-15T17:05:00.192Z,10.8
2019-05-15T17:10:00.187Z,10.8
2019-05-15T17:15:00.267Z,10.8
2019-05-15T17:20:02.018Z,10.8
2019-05-15T17:25:00.252Z,9.2
2019-05-15T17:30:00.160Z,8.3
2019-05-15T17:35:00.302Z,6.7
2019-05-15T17:40:00.384Z,5.8
2019-05-15T17:45:00.399Z,4.2
2019-05-15T17:50:00.156Z,4.2
2019-05-15T17:55:00.487Z,3.3
2019-05-15T18:00:00.313Z,4.2
2019-05-15T18:05:00.533Z,5
2019-05-15T18:10:00.112Z,5.8
2019-05-15T18:15:00.392Z,5.8
2019-05-15T18:20:00.148Z,5
2019-05-15T18:25:00.354Z,4.2
2019-05-15T18:30:00.357Z,3.3
2019-05-15T18:35:00.188Z,2.5
2019-05-15T18:40:05.206Z,1.7
2019-05-15T18:45:00.405Z,1.7
2019-05-15T18:50:08.320Z,1.7
2019-05-15T18:55:00.102Z,1.7
2019-05-15T19:00:00.042Z,0.8
2019-05-15T19:05:00.268Z,0.8
2019-05-15T19:10:00.349Z,0
2019-05-15T19:15:00.194Z,0
2019-05-15T19:20:00.248Z,0
2019-05-15T19:25:00.115Z,0
2019-05-15T19:30:00.319Z,0
2019-05-15T19:35:00.181Z,0
2019-05-15T19:40:00.204Z,0
2019-05-15T19:45:00.253Z,0
2019-05-15T19:50:00.140Z,0
2019-05-15T19:55:00.378Z,0
2019-05-15T20:00:00.014Z,0
2019-05-15T20:05:00.207Z,0
2019-05-15T20:10:00.053Z,0
2019-05-15T20:15:00.003Z,0
2019-05-15T20:20:00.294Z,0
2019-05-15T20:25:00.008Z,0
2019-05-15T20:30:00.009Z,0
2019-05-15T20:35:00.137Z,0
2019-05-15T20:40:00.104Z,0
2019-05-15T20:45:00.101Z,0
2019-05-15T20:50:00.022Z,0
2019-05-15T20:55:00.075Z,0
2019-05-15T21:00:00.075Z,0
2019-05-15T21:05:00.833Z,0
2019-05-15T21:09:59.962Z,0
2019-05-15T21:15:00.176Z,0
2019-05-15T21:20:01.096Z,0
2019-05-15T21:24:59.849Z,0
2019-05-15T21:29:59.990Z,0
2019-05-15T21:35:00.165Z,0
2019-05-15T21:39:59.968Z,0
2019-05-15T21:45:00.096Z,0
2019-05-15T21:50:00.065Z,0
2019-05-15T21:55:02.113Z,0
2019-05-15T22:00:00.678Z,0
2019-05-15T22:05:00.353Z,0
2019-05-15T22:09:59.960Z,0
2019-05-15T22:14:59.951Z,0
2019-05-15T22:20:00.021Z,0
2019-05-15T22:24:59.961Z,0
2019-05-15T22:30:00.116Z,0
2019-05-15T22:35:09.361Z,0
2019-05-15T22:40:00.905Z,0
2019-05-15T22:44:59.986Z,0
2019-05-15T22:50:00.149Z,0
2019-05-15T22:54:59.870Z,0
2019-05-15T22:59:59.824Z,0
2019-05-15T23:05:00.459Z,0
2019-05-15T23:10:00.151Z,0
2019-05-15T23:14:59.749Z,0
2019-05-15T23:20:00.294Z,0
2019-05-15T23:24:59.734Z,0
2019-05-15T23:29:59.747Z,0
2019-05-15T23:34:59.886Z,0
2019-05-15T23:39:59.958Z,0
2019-05-15T23:44:59.989Z,0
2019-05-15T23:49:59.647Z,0
2019-05-15T23:54:59.966Z,0
